AUR39J EGJJ-EGJB

Flight info

Callsign AUR39J
Flight time 0h 13m
Altitude 2000
Route GUR
Aircraft AT76/M-SDFGIRY/S

Departure

Time 2026-05-04 19:19
Airport Jersey Airport (EGJJ)

Arrival

Time 2026-05-04 19:32
Airport Guernsey Airport (EGJB)
Time Latitude Longitude Altitude Speed Heading
2026-05-04 19:01 49.20541 -2.19860 280 ft 0 kts 174°
2026-05-04 19:12 49.20580 -2.19861 280 ft 4 kts 191°
2026-05-04 19:12 49.20603 -2.19847 280 ft 4 kts 236°
2026-05-04 19:13 49.20608 -2.19833 280 ft 0 kts 263°
2026-05-04 19:15 49.20603 -2.19887 280 ft 8 kts 262°
2026-05-04 19:15 49.20551 -2.19933 280 ft 12 kts 175°
2026-05-04 19:16 49.20523 -2.20012 280 ft 11 kts 287°
2026-05-04 19:16 49.20546 -2.20129 280 ft 12 kts 287°
2026-05-04 19:16 49.20571 -2.20257 280 ft 13 kts 285°
2026-05-04 19:16 49.20597 -2.20392 280 ft 13 kts 286°
2026-05-04 19:17 49.20617 -2.20498 280 ft 7 kts 285°
2026-05-04 19:17 49.20620 -2.20520 280 ft 0 kts 282°
2026-05-04 19:18 49.20621 -2.20526 281 ft 3 kts 282°
2026-05-04 19:18 49.20626 -2.20586 281 ft 8 kts 274°
2026-05-04 19:18 49.20638 -2.20684 281 ft 10 kts 305°
2026-05-04 19:18 49.20693 -2.20689 280 ft 8 kts 35°
2026-05-04 19:19 49.20708 -2.20617 280 ft 6 kts 83°
2026-05-04 19:19 49.20734 -2.20321 280 ft 66 kts 81°
2026-05-04 19:19 49.20821 -2.19270 330 ft 124 kts 80°
2026-05-04 19:19 49.20921 -2.18005 1030 ft 119 kts 81°
2026-05-04 19:20 49.21008 -2.16738 1634 ft 123 kts 82°
2026-05-04 19:20 49.21122 -2.15305 1808 ft 149 kts 73°
2026-05-04 19:20 49.21845 -2.14073 1914 ft 175 kts 22°
2026-05-04 19:20 49.23130 -2.14132 1960 ft 203 kts 339°
2026-05-04 19:21 49.24238 -2.15618 1986 ft 222 kts 309°
2026-05-04 19:21 49.25171 -2.17594 1992 ft 235 kts 306°
2026-05-04 19:21 49.26087 -2.19719 1978 ft 242 kts 305°
2026-05-04 19:21 49.27009 -2.21913 1983 ft 247 kts 304°
2026-05-04 19:22 49.27948 -2.24133 1979 ft 250 kts 304°
2026-05-04 19:22 49.28908 -2.26367 1992 ft 252 kts 304°
2026-05-04 19:22 49.29867 -2.28617 1994 ft 254 kts 304°
2026-05-04 19:22 49.30850 -2.30875 2000 ft 255 kts 305°
2026-05-04 19:23 49.31840 -2.33144 1995 ft 256 kts 304°
2026-05-04 19:23 49.32839 -2.35404 2002 ft 257 kts 306°
2026-05-04 19:23 49.33843 -2.37669 1988 ft 257 kts 305°
2026-05-04 19:23 49.34846 -2.39941 1989 ft 257 kts 305°
2026-05-04 19:24 49.35654 -2.42354 1978 ft 257 kts 284°
2026-05-04 19:24 49.35801 -2.45060 1986 ft 254 kts 273°
2026-05-04 19:24 49.35841 -2.47779 1991 ft 256 kts 271°
2026-05-04 19:24 49.35852 -2.50517 1997 ft 257 kts 271°
2026-05-04 19:25 49.35852 -2.53269 2000 ft 258 kts 270°
2026-05-04 19:25 49.35848 -2.55985 1995 ft 259 kts 270°
2026-05-04 19:25 49.35838 -2.58749 1995 ft 259 kts 270°
2026-05-04 19:25 49.35821 -2.61517 1987 ft 259 kts 270°
2026-05-04 19:26 49.35805 -2.64281 1996 ft 259 kts 270°
2026-05-04 19:26 49.35785 -2.67050 1997 ft 260 kts 270°
2026-05-04 19:26 49.35760 -2.69818 1993 ft 259 kts 270°
2026-05-04 19:26 49.35739 -2.72511 1985 ft 248 kts 270°
2026-05-04 19:27 49.35712 -2.75183 1991 ft 252 kts 270°
2026-05-04 19:27 49.35715 -2.77861 1991 ft 248 kts 277°
2026-05-04 19:27 49.36398 -2.80249 1991 ft 248 kts 311°
2026-05-04 19:27 49.37834 -2.81638 2002 ft 247 kts 345°
2026-05-04 19:28 49.39529 -2.81927 2006 ft 239 kts 357°
2026-05-04 19:28 49.41099 -2.82019 2001 ft 212 kts
2026-05-04 19:28 49.42391 -2.81330 1997 ft 193 kts 41°
2026-05-04 19:28 49.42966 -2.79589 1999 ft 181 kts 82°
2026-05-04 19:29 49.43042 -2.77729 2003 ft 168 kts 86°
2026-05-04 19:29 49.43065 -2.75988 1995 ft 158 kts 88°
2026-05-04 19:29 49.43088 -2.74377 1997 ft 143 kts 86°
2026-05-04 19:29 49.43131 -2.72949 1845 ft 126 kts 85°
2026-05-04 19:30 49.43173 -2.71675 1677 ft 114 kts 85°
2026-05-04 19:30 49.43212 -2.70502 1520 ft 106 kts 84°
2026-05-04 19:30 49.43241 -2.69380 1380 ft 108 kts 84°
2026-05-04 19:30 49.43275 -2.68201 1232 ft 112 kts 84°
2026-05-04 19:31 49.43305 -2.67012 1091 ft 113 kts 85°
2026-05-04 19:31 49.43339 -2.65810 941 ft 112 kts 85°
2026-05-04 19:31 49.43368 -2.64631 785 ft 111 kts 84°
2026-05-04 19:31 49.43407 -2.63452 640 ft 111 kts 84°
2026-05-04 19:32 49.43429 -2.62667 531 ft 107 kts 85°
2026-05-04 19:32 49.43461 -2.61526 365 ft 104 kts 85°
2026-05-04 19:32 49.43488 -2.60525 305 ft 80 kts 86°
2026-05-04 19:32 49.43507 -2.59838 321 ft 25 kts 88°
2026-05-04 19:33 49.43513 -2.59625 326 ft 16 kts 88°
2026-05-04 19:33 49.43516 -2.59524 329 ft 12 kts 88°
2026-05-04 19:33 49.43519 -2.59401 331 ft 13 kts 87°
2026-05-04 19:33 49.43522 -2.59260 331 ft 13 kts 91°
2026-05-04 19:34 49.43456 -2.59198 330 ft 11 kts 178°
2026-05-04 19:34 49.43381 -2.59230 327 ft 12 kts 233°
2026-05-04 19:34 49.43369 -2.59368 330 ft 14 kts 267°
2026-05-04 19:34 49.43365 -2.59514 328 ft 14 kts 268°
2026-05-04 19:35 49.43349 -2.59624 323 ft 7 kts 199°
2026-05-04 19:35 49.43297 -2.59622 326 ft 7 kts 178°
2026-05-04 19:35 49.43258 -2.59620 325 ft 4 kts 178°
2026-05-04 19:35 49.43253 -2.59620 325 ft 0 kts 178°